Time;durP1;ratioP1;P1;durP2;ratioP2;P2;SDS_P1;SDS_P2;PMS_P1;PMS_P2;Temp;Humidity;BMP_temperature;BMP_pressure;BME280_temperature;BME280_humidity;BME280_pressure;Samples;Min_cycle;Max_cycle;Signal;HPM_P1;HPM_P2
2023/10/22 00:00:15;;;;;;;62.13;28.45;;;;;;;;;;1044503;28;20063;-67
2023/10/22 00:01:05;;;;;;;;;;;;;;;;;;1045270;28;20075;-66
2023/10/22 00:01:56;;;;;;;49.67;25.38;;;;;;;;;;1042465;28;20343;-67
2023/10/22 00:02:26;;;;;;;52.08;28.55;;;;;;;;;;1040443;28;20546;-65
2023/10/22 00:02:57;;;;;;;61.25;27.60;;;;;;;;;;1039738;28;20045;-67
2023/10/22 00:03:27;;;;;;;65.45;29.05;;;;;;;;;;1045504;28;20052;-65
2023/10/22 00:03:58;;;;;;;87.63;28.60;;;;;;;;;;1048606;28;20044;-65
2023/10/22 00:04:28;;;;;;;68.47;28.98;;;;;;;;;;1047260;28;20050;-66
2023/10/22 00:04:59;;;;;;;60.97;29.35;;;;;;;;;;1047948;28;20094;-65
2023/10/22 00:05:29;;;;;;;49.28;28.52;;;;;;;;;;1039517;28;20107;-66
2023/10/22 00:06:00;;;;;;;64.05;29.08;;;;;;;;;;1041800;28;20473;-66
2023/10/22 00:06:31;;;;;;;61.63;28.88;;;;;;;;;;1044448;28;20056;-66
2023/10/22 00:07:01;;;;;;;54.25;27.70;;;;;;;;;;1045061;28;20110;-67
2023/10/22 00:07:33;;;;;;;90.75;30.23;;;;;;;;;;1043654;28;20058;-67
2023/10/22 00:08:03;;;;;;;89.78;31.38;;;;;;;;;;1050108;28;20048;-67
2023/10/22 00:08:34;;;;;;;78.47;30.50;;;;;;;;;;1048065;28;20040;-65
2023/10/22 00:09:04;;;;;;;99.05;31.10;;;;;;;;;;1045022;28;20707;-67
2023/10/22 00:09:35;;;;;;;94.63;31.30;;;;;;;;;;1045006;28;20131;-65
2023/10/22 00:10:06;;;;;;;107.32;30.80;;;;;;;;;;1045184;28;20163;-66
2023/10/22 00:10:36;;;;;;;97.10;31.80;;;;;;;;;;1045755;28;20052;-66
2023/10/22 00:11:07;;;;;;;98.07;31.33;;;;;;;;;;1045005;28;20067;-65
2023/10/22 00:11:37;;;;;;;119.80;33.45;;;;;;;;;;1045471;28;20142;-67
2023/10/22 00:12:08;;;;;;;90.65;32.50;;;;;;;;;;1043510;28;20493;-65
2023/10/22 00:12:39;;;;;;;62.65;29.23;;;;;;;;;;1044581;28;20036;-67
2023/10/22 00:13:09;;;;;;;68.22;31.35;;;;;;;;;;1044175;28;20055;-66
2023/10/22 00:13:40;;;;;;;90.00;32.40;;;;;;;;;;1044024;28;20053;-66
2023/10/22 00:14:10;;;;;;;106.43;31.90;;;;;;;;;;1044964;28;20393;-66
2023/10/22 00:14:41;;;;;;;86.10;30.95;;;;;;;;;;1046443;28;20489;-68
2023/10/22 00:15:11;;;;;;;146.73;34.53;;;;;;;;;;1044412;28;20163;-66
2023/10/22 00:15:42;;;;;;;171.85;35.10;;;;;;;;;;1046303;28;20438;-66
2023/10/22 00:16:13;;;;;;;108.68;32.72;;;;;;;;;;1044847;28;20052;-65
2023/10/22 00:16:43;;;;;;;143.35;33.33;;;;;;;;;;1046322;28;20421;-67
2023/10/22 00:17:14;;;;;;;96.10;31.20;;;;;;;;;;1043287;28;20053;-65
2023/10/22 00:17:44;;;;;;;101.13;31.60;;;;;;;;;;1046323;28;20044;-66
2023/10/22 00:18:15;;;;;;;110.93;33.15;;;;;;;;;;1044545;28;20055;-66
2023/10/22 00:18:46;;;;;;;114.45;32.28;;;;;;;;;;1044714;28;20048;-66
2023/10/22 00:19:16;;;;;;;103.85;33.33;;;;;;;;;;1043183;28;20052;-66
2023/10/22 00:19:47;;;;;;;145.65;33.70;;;;;;;;;;1044372;28;20048;-66
2023/10/22 00:20:19;;;;;;;88.05;33.17;;;;;;;;;;1043727;28;20041;-66
2023/10/22 00:20:49;;;;;;;119.65;33.20;;;;;;;;;;1046600;28;20052;-67
2023/10/22 00:21:20;;;;;;;80.07;32.00;;;;;;;;;;1045763;28;20052;-67
2023/10/22 00:21:50;;;;;;;93.78;33.30;;;;;;;;;;1044779;28;20090;-68
2023/10/22 00:22:21;;;;;;;76.28;32.50;;;;;;;;;;1043073;28;20045;-66
2023/10/22 00:22:52;;;;;;;77.53;32.15;;;;;;;;;;1045622;28;20052;-66
2023/10/22 00:23:22;;;;;;;71.00;31.60;;;;;;;;;;1045697;28;20056;-66
2023/10/22 00:23:53;;;;;;;73.82;32.65;;;;;;;;;;1043653;28;20127;-65
2023/10/22 00:24:23;;;;;;;82.20;32.47;;;;;;;;;;1044463;28;20059;-64
2023/10/22 00:24:54;;;;;;;78.55;33.75;;;;;;;;;;1044389;28;20051;-64
2023/10/22 00:25:24;;;;;;;67.63;32.60;;;;;;;;;;1044922;28;20049;-66
2023/10/22 00:25:55;;;;;;;84.57;32.58;;;;;;;;;;1045003;28;20063;-65
2023/10/22 00:26:25;;;;;;;63.70;31.55;;;;;;;;;;1043615;28;20572;-65
2023/10/22 00:26:57;;;;;;;68.18;32.35;;;;;;;;;;1043308;28;20055;-65
2023/10/22 00:27:28;;;;;;;69.60;30.73;;;;;;;;;;1045304;28;20056;-65
2023/10/22 00:27:58;;;;;;;62.25;31.02;;;;;;;;;;1045677;28;20045;-66
2023/10/22 00:28:29;;;;;;;64.65;32.28;;;;;;;;;;1043607;28;20044;-64
2023/10/22 00:28:59;;;;;;;53.50;29.70;;;;;;;;;;1049149;28;20809;-66
2023/10/22 00:29:30;;;;;;;65.07;32.42;;;;;;;;;;1047514;28;20044;-64
2023/10/22 00:30:01;;;;;;;67.53;32.78;;;;;;;;;;1050191;28;20073;-64
2023/10/22 00:30:31;;;;;;;55.63;31.30;;;;;;;;;;1046425;28;20052;-66
2023/10/22 00:31:02;;;;;;;50.22;30.27;;;;;;;;;;1044500;28;20036;-66
2023/10/22 00:31:32;;;;;;;52.40;30.42;;;;;;;;;;1044144;28;20048;-66
2023/10/22 00:32:03;;;;;;;50.85;31.05;;;;;;;;;;1043439;28;20059;-66
2023/10/22 00:32:34;;;;;;;60.58;31.48;;;;;;;;;;1045287;28;20052;-65
2023/10/22 00:33:04;;;;;;;58.17;31.80;;;;;;;;;;1046484;28;20045;-65
2023/10/22 00:33:35;;;;;;;56.30;31.02;;;;;;;;;;1043278;28;20119;-66
2023/10/22 00:34:06;;;;;;;52.15;30.67;;;;;;;;;;1043451;28;20037;-67
2023/10/22 00:34:37;;;;;;;51.83;30.02;;;;;;;;;;1045110;28;20347;-64
2023/10/22 00:35:07;;;;;;;55.08;31.10;;;;;;;;;;1046132;28;20566;-66
2023/10/22 00:35:37;;;;;;;57.97;32.85;;;;;;;;;;1044798;28;20068;-66
2023/10/22 00:36:08;;;;;;;46.33;30.10;;;;;;;;;;1046227;28;20052;-66
2023/10/22 00:36:41;;;;;;;58.13;31.40;;;;;;;;;;1043819;28;20052;-65
2023/10/22 00:37:11;;;;;;;53.45;30.50;;;;;;;;;;1044993;28;20064;-67
2023/10/22 00:37:42;;;;;;;53.28;30.85;;;;;;;;;;1045353;28;20052;-65
2023/10/22 00:38:12;;;;;;;53.55;29.98;;;;;;;;;;1046012;28;20774;-64
2023/10/22 00:38:43;;;;;;;56.97;32.40;;;;;;;;;;1045409;28;20075;-66
2023/10/22 00:39:14;;;;;;;57.90;33.55;;;;;;;;;;1043578;28;20064;-65
2023/10/22 00:39:44;;;;;;;68.00;32.08;;;;;;;;;;1044305;28;20055;-65
2023/10/22 00:40:15;;;;;;;71.72;32.45;;;;;;;;;;1043669;28;20370;-66
2023/10/22 00:40:45;;;;;;;54.50;31.27;;;;;;;;;;1045653;28;20044;-66
2023/10/22 00:41:16;;;;;;;59.97;34.03;;;;;;;;;;1044638;28;20049;-64
2023/10/22 00:41:46;;;;;;;62.33;32.83;;;;;;;;;;1044520;28;20822;-66
2023/10/22 00:42:17;;;;;;;68.30;33.22;;;;;;;;;;1044751;28;20049;-65
2023/10/22 00:42:47;;;;;;;61.63;33.25;;;;;;;;;;1043421;28;20052;-66
2023/10/22 00:43:18;;;;;;;58.47;32.50;;;;;;;;;;1044420;28;20832;-65
2023/10/22 00:43:48;;;;;;;62.80;31.98;;;;;;;;;;1044342;28;20056;-65
2023/10/22 00:44:19;;;;;;;58.72;31.73;;;;;;;;;;1044564;28;20140;-66
2023/10/22 00:44:49;;;;;;;67.43;31.73;;;;;;;;;;1046497;28;20060;-65
2023/10/22 00:45:20;;;;;;;61.33;31.67;;;;;;;;;;1044187;28;20187;-67
2023/10/22 00:45:52;;;;;;;57.15;31.00;;;;;;;;;;1045933;28;20056;-67
2023/10/22 00:46:24;;;;;;;52.22;30.02;;;;;;;;;;1043352;28;20536;-64
2023/10/22 00:46:56;;;;;;;56.40;32.15;;;;;;;;;;1045946;28;20041;-65
2023/10/22 00:47:26;;;;;;;62.03;32.47;;;;;;;;;;1044306;28;20044;-66
2023/10/22 00:47:57;;;;;;;56.22;30.48;;;;;;;;;;1043636;28;20049;-65
2023/10/22 00:48:28;;;;;;;56.13;30.70;;;;;;;;;;1043533;28;20053;-66
2023/10/22 00:48:58;;;;;;;51.58;30.48;;;;;;;;;;1046089;28;20654;-65
2023/10/22 00:49:29;;;;;;;51.63;30.70;;;;;;;;;;1045460;28;20053;-66
2023/10/22 00:49:59;;;;;;;58.55;31.48;;;;;;;;;;1045597;28;20536;-65
2023/10/22 00:50:30;;;;;;;60.40;32.15;;;;;;;;;;1043217;28;20122;-65
2023/10/22 00:51:01;;;;;;;62.55;32.53;;;;;;;;;;1045925;28;20052;-66
2023/10/22 00:51:31;;;;;;;55.50;31.50;;;;;;;;;;1045279;28;20138;-67
2023/10/22 00:52:03;;;;;;;59.28;31.08;;;;;;;;;;1044440;28;20193;-64
2023/10/22 00:52:34;;;;;;;50.85;30.45;;;;;;;;;;1043656;28;20048;-66
2023/10/22 00:53:13;;;;;;;49.28;29.48;;;;;;;;;;1045947;28;20108;-66
2023/10/22 00:53:45;;;;;;;61.78;31.25;;;;;;;;;;1043620;28;20137;-66
2023/10/22 00:54:18;;;;;;;55.45;31.50;;;;;;;;;;1044200;28;20453;-66
2023/10/22 00:54:49;;;;;;;58.95;32.67;;;;;;;;;;1044277;28;20032;-66
2023/10/22 00:55:21;;;;;;;56.50;31.55;;;;;;;;;;1045942;28;20535;-65
2023/10/22 00:55:53;;;;;;;47.70;29.65;;;;;;;;;;1052765;28;20408;-65
2023/10/22 00:56:25;;;;;;;59.28;30.83;;;;;;;;;;1052336;28;20743;-66
2023/10/22 00:56:56;;;;;;;47.10;30.10;;;;;;;;;;1051986;28;20166;-65
2023/10/22 00:57:27;;;;;;;47.28;29.80;;;;;;;;;;1050851;28;20044;-66
2023/10/22 00:57:58;;;;;;;52.42;30.67;;;;;;;;;;1045463;28;20044;-66
2023/10/22 00:58:29;;;;;;;46.45;28.65;;;;;;;;;;1046082;28;20044;-64
2023/10/22 00:59:00;;;;;;;48.83;29.23;;;;;;;;;;1045569;28;20057;-65
2023/10/22 00:59:31;;;;;;;48.63;30.30;;;;;;;;;;1043595;28;20059;-66
2023/10/22 01:00:01;;;;;;;53.35;30.13;;;;;;;;;;1044668;28;20123;-66
2023/10/22 01:00:33;;;;;;;60.35;30.77;;;;;;;;;;1043401;28;20127;-65
2023/10/22 01:01:07;;;;;;;55.95;31.50;;;;;;;;;;1045806;28;20095;-65
2023/10/22 01:01:37;;;;;;;50.13;30.67;;;;;;;;;;1043328;28;20052;-66
2023/10/22 01:02:08;;;;;;;50.58;30.10;;;;;;;;;;1045201;28;20055;-64
2023/10/22 01:02:38;;;;;;;52.30;31.60;;;;;;;;;;1045429;28;20057;-67
2023/10/22 01:03:09;;;;;;;51.53;31.00;;;;;;;;;;1045893;28;20082;-65
2023/10/22 01:03:40;;;;;;;52.00;30.70;;;;;;;;;;1044499;28;20040;-66
2023/10/22 01:04:11;;;;;;;50.97;31.60;;;;;;;;;;1045101;28;20056;-65
2023/10/22 01:04:42;;;;;;;52.00;29.83;;;;;;;;;;1044454;28;20110;-65
2023/10/22 01:05:13;;;;;;;53.83;31.52;;;;;;;;;;1045241;28;20068;-65
2023/10/22 01:05:43;;;;;;;52.10;31.38;;;;;;;;;;1044644;28;20135;-66
2023/10/22 01:06:14;;;;;;;52.05;30.58;;;;;;;;;;1045761;28;20113;-66
2023/10/22 01:06:45;;;;;;;59.08;31.88;;;;;;;;;;1043847;28;20492;-64
2023/10/22 01:07:16;;;;;;;51.17;30.58;;;;;;;;;;1044093;28;20037;-66
2023/10/22 01:07:47;;;;;;;46.53;29.17;;;;;;;;;;1044659;28;20048;-67
2023/10/22 01:08:18;;;;;;;53.00;30.23;;;;;;;;;;1045845;28;20102;-66
2023/10/22 01:08:49;;;;;;;56.40;31.83;;;;;;;;;;1045993;28;20107;-64
2023/10/22 01:09:20;;;;;;;49.92;30.85;;;;;;;;;;1043674;28;20501;-64
2023/10/22 01:09:51;;;;;;;48.75;29.77;;;;;;;;;;1044237;28;20489;-64
2023/10/22 01:10:22;;;;;;;51.58;31.20;;;;;;;;;;1044233;28;20053;-66
2023/10/22 01:10:52;;;;;;;51.15;31.08;;;;;;;;;;1044397;28;20064;-65
2023/10/22 01:11:23;;;;;;;53.60;32.13;;;;;;;;;;1044795;28;20139;-65
2023/10/22 01:12:04;;;;;;;50.50;30.80;;;;;;;;;;1045204;28;20408;-66
2023/10/22 01:12:35;;;;;;;47.13;28.60;;;;;;;;;;1044949;28;20055;-65
2023/10/22 01:13:06;;;;;;;51.90;29.92;;;;;;;;;;1043931;28;20040;-66
2023/10/22 01:13:37;;;;;;;52.22;30.20;;;;;;;;;;1043557;28;20110;-66
2023/10/22 01:14:08;;;;;;;52.33;28.88;;;;;;;;;;1044936;28;20045;-65
2023/10/22 01:14:38;;;;;;;50.92;30.02;;;;;;;;;;1045019;28;20102;-66
2023/10/22 01:15:09;;;;;;;58.70;31.17;;;;;;;;;;1044867;28;20048;-65
2023/10/22 01:15:40;;;;;;;49.30;30.10;;;;;;;;;;1045543;28;20457;-67
2023/10/22 01:16:11;;;;;;;46.60;28.48;;;;;;;;;;1044773;28;20516;-66
2023/10/22 01:16:42;;;;;;;43.67;27.73;;;;;;;;;;1045383;28;20416;-65
2023/10/22 01:17:12;;;;;;;47.22;29.27;;;;;;;;;;1043481;28;20115;-66
2023/10/22 01:17:43;;;;;;;45.17;28.52;;;;;;;;;;1045763;28;20048;-65
2023/10/22 01:18:14;;;;;;;51.22;30.30;;;;;;;;;;1044253;28;20508;-66
2023/10/22 01:18:44;;;;;;;51.55;30.10;;;;;;;;;;1046087;28;20052;-67
2023/10/22 01:19:15;;;;;;;47.85;28.73;;;;;;;;;;1044851;28;20056;-66
2023/10/22 01:19:46;;;;;;;47.28;28.40;;;;;;;;;;1045393;28;20071;-66
2023/10/22 01:20:16;;;;;;;52.65;29.38;;;;;;;;;;1044447;28;20052;-66
2023/10/22 01:20:47;;;;;;;48.35;29.02;;;;;;;;;;1045934;28;20044;-66
2023/10/22 01:21:17;;;;;;;46.63;29.35;;;;;;;;;;1046201;28;20045;-66
2023/10/22 01:21:48;;;;;;;45.25;29.27;;;;;;;;;;1045918;28;20049;-65
2023/10/22 01:22:19;;;;;;;51.33;29.85;;;;;;;;;;1044105;28;20052;-66
2023/10/22 01:22:49;;;;;;;54.08;30.00;;;;;;;;;;1046101;28;20048;-65
2023/10/22 01:23:21;;;;;;;47.75;29.25;;;;;;;;;;1045236;28;20052;-65
2023/10/22 01:23:51;;;;;;;44.08;29.05;;;;;;;;;;1046861;28;20067;-65
2023/10/22 01:24:22;;;;;;;47.67;29.30;;;;;;;;;;1044041;28;20095;-66
2023/10/22 01:24:52;;;;;;;45.10;28.65;;;;;;;;;;1046828;28;20051;-65
2023/10/22 01:25:23;;;;;;;47.42;28.77;;;;;;;;;;1046158;28;20048;-65
2023/10/22 01:25:53;;;;;;;45.88;28.60;;;;;;;;;;1046696;28;20036;-66
2023/10/22 01:26:24;;;;;;;51.05;29.08;;;;;;;;;;1044862;28;21124;-65
2023/10/22 01:26:54;;;;;;;51.20;28.88;;;;;;;;;;1045916;28;20080;-65
2023/10/22 01:27:25;;;;;;;41.03;27.50;;;;;;;;;;1044897;28;20131;-65
2023/10/22 01:27:58;;;;;;;45.17;27.92;;;;;;;;;;1044585;28;20211;-65
2023/10/22 01:28:28;;;;;;;47.05;27.75;;;;;;;;;;1045819;28;20498;-65
2023/10/22 01:28:59;;;;;;;47.60;29.35;;;;;;;;;;1046072;28;20045;-67
2023/10/22 01:29:29;;;;;;;50.72;29.23;;;;;;;;;;1046263;28;20082;-66
2023/10/22 01:30:00;;;;;;;47.28;28.50;;;;;;;;;;1045535;28;20045;-64
2023/10/22 01:30:31;;;;;;;42.50;27.42;;;;;;;;;;1043566;28;20743;-65
2023/10/22 01:31:04;;;;;;;43.53;28.17;;;;;;;;;;1045660;28;20459;-66
2023/10/22 01:31:35;;;;;;;42.92;27.20;;;;;;;;;;1046610;28;20082;-65
2023/10/22 01:32:06;;;;;;;44.13;27.73;;;;;;;;;;1044852;28;20040;-67
2023/10/22 01:32:36;;;;;;;41.95;26.83;;;;;;;;;;1045082;28;20063;-64
2023/10/22 01:33:07;;;;;;;41.47;26.67;;;;;;;;;;1045765;28;20065;-65
2023/10/22 01:33:37;;;;;;;42.80;27.23;;;;;;;;;;1045178;28;20564;-67
2023/10/22 01:34:08;;;;;;;41.05;27.83;;;;;;;;;;1044823;28;20945;-66
2023/10/22 01:34:38;;;;;;;45.92;28.10;;;;;;;;;;1045848;28;20645;-65
2023/10/22 01:35:10;;;;;;;47.13;27.70;;;;;;;;;;1044775;28;20068;-65
2023/10/22 01:35:40;;;;;;;42.90;27.33;;;;;;;;;;1045772;28;20790;-64
2023/10/22 01:36:11;;;;;;;41.15;26.50;;;;;;;;;;1044344;28;20582;-64
2023/10/22 01:36:41;;;;;;;42.40;27.67;;;;;;;;;;1045843;28;20052;-65
2023/10/22 01:37:12;;;;;;;43.92;27.55;;;;;;;;;;1045389;28;20767;-66
2023/10/22 01:37:43;;;;;;;43.90;27.80;;;;;;;;;;1046825;28;20053;-66
2023/10/22 01:38:14;;;;;;;49.95;28.38;;;;;;;;;;1046130;28;20060;-65
2023/10/22 01:38:44;;;;;;;38.80;25.52;;;;;;;;;;1045347;28;20754;-65
2023/10/22 01:39:15;;;;;;;42.50;26.38;;;;;;;;;;1044714;28;20048;-66
2023/10/22 01:39:45;;;;;;;40.00;26.70;;;;;;;;;;1046482;28;20596;-66
2023/10/22 01:40:16;;;;;;;41.45;25.83;;;;;;;;;;1045065;28;20094;-66
2023/10/22 01:40:46;;;;;;;38.35;25.55;;;;;;;;;;1045648;28;20064;-65
2023/10/22 01:41:17;;;;;;;43.08;26.90;;;;;;;;;;1046676;28;20117;-65
2023/10/22 01:41:47;;;;;;;39.58;25.88;;;;;;;;;;1046267;28;20504;-65
2023/10/22 01:42:18;;;;;;;43.75;26.52;;;;;;;;;;1044395;28;20049;-65
2023/10/22 01:42:50;;;;;;;41.83;26.52;;;;;;;;;;1045561;28;20524;-67
2023/10/22 01:43:20;;;;;;;38.97;24.60;;;;;;;;;;1044785;28;20052;-66
2023/10/22 01:43:52;;;;;;;40.22;26.45;;;;;;;;;;1046637;28;20049;-65
2023/10/22 01:44:23;;;;;;;40.15;24.75;;;;;;;;;;1045201;28;20076;-66
2023/10/22 01:44:54;;;;;;;36.90;25.17;;;;;;;;;;1044876;28;20382;-67
2023/10/22 01:45:25;;;;;;;37.03;25.40;;;;;;;;;;1043151;28;20413;-65
2023/10/22 01:45:55;;;;;;;38.83;25.80;;;;;;;;;;1045729;28;20111;-67
2023/10/22 01:46:26;;;;;;;42.75;26.00;;;;;;;;;;1046346;28;20547;-65
2023/10/22 01:46:56;;;;;;;44.03;25.50;;;;;;;;;;1045735;28;20507;-66
2023/10/22 01:47:27;;;;;;;39.75;25.33;;;;;;;;;;1044295;28;20075;-67
2023/10/22 01:47:57;;;;;;;42.80;25.88;;;;;;;;;;1045712;28;20053;-67
2023/10/22 01:48:28;;;;;;;40.60;26.25;;;;;;;;;;1045895;28;20049;-66
2023/10/22 01:48:58;;;;;;;38.97;23.55;;;;;;;;;;1046305;28;20049;-66
2023/10/22 01:49:29;;;;;;;43.55;24.95;;;;;;;;;;1044838;28;20462;-66
2023/10/22 01:49:59;;;;;;;36.55;24.35;;;;;;;;;;1043526;28;20512;-65
2023/10/22 01:50:30;;;;;;;40.28;24.48;;;;;;;;;;1046702;28;20059;-65
2023/10/22 01:51:00;;;;;;;39.40;24.42;;;;;;;;;;1046529;28;20048;-65
2023/10/22 01:51:31;;;;;;;36.55;23.80;;;;;;;;;;1042750;28;20053;-66
2023/10/22 01:52:02;;;;;;;42.53;24.55;;;;;;;;;;1046748;28;20106;-65
2023/10/22 01:52:32;;;;;;;37.00;23.63;;;;;;;;;;1046561;28;20060;-66
2023/10/22 01:53:04;;;;;;;38.05;24.08;;;;;;;;;;1046206;28;20527;-64
2023/10/22 01:53:34;;;;;;;34.05;23.75;;;;;;;;;;1043999;28;20135;-65
2023/10/22 01:54:06;;;;;;;36.50;23.65;;;;;;;;;;1044679;28;20045;-64
2023/10/22 01:54:38;;;;;;;37.35;24.48;;;;;;;;;;1046439;28;20052;-66
2023/10/22 01:55:09;;;;;;;38.05;24.52;;;;;;;;;;1046470;28;20044;-65
2023/10/22 01:55:39;;;;;;;41.05;25.33;;;;;;;;;;1045556;28;20048;-67
2023/10/22 01:56:10;;;;;;;38.50;23.98;;;;;;;;;;1046534;28;20097;-66
2023/10/22 01:56:41;;;;;;;35.35;24.48;;;;;;;;;;1044038;28;20135;-67
2023/10/22 01:57:11;;;;;;;35.72;24.58;;;;;;;;;;1044948;28;20056;-65
2023/10/22 01:57:42;;;;;;;36.42;23.75;;;;;;;;;;1046746;28;20049;-65
2023/10/22 01:58:12;;;;;;;35.33;23.50;;;;;;;;;;1045356;28;20052;-67
2023/10/22 01:58:44;;;;;;;34.90;23.60;;;;;;;;;;1045293;28;20109;-65
2023/10/22 01:59:15;;;;;;;36.30;23.25;;;;;;;;;;1044415;28;20052;-66
2023/10/22 01:59:45;;;;;;;37.75;23.70;;;;;;;;;;1046177;28;20044;-65
2023/10/22 02:00:17;;;;;;;33.22;22.90;;;;;;;;;;1043177;28;20090;-66
2023/10/22 02:00:48;;;;;;;33.13;22.60;;;;;;;;;;1045526;28;20033;-65
2023/10/22 02:01:18;;;;;;;35.38;23.38;;;;;;;;;;1043480;28;20048;-65
2023/10/22 02:01:49;;;;;;;36.35;22.55;;;;;;;;;;1046174;28;20064;-64
2023/10/22 02:02:19;;;;;;;33.72;23.20;;;;;;;;;;1045529;28;20055;-67
2023/10/22 02:02:52;;;;;;;35.92;22.90;;;;;;;;;;1045036;28;20102;-66
2023/10/22 02:03:23;;;;;;;36.15;23.05;;;;;;;;;;1043947;28;20052;-65
2023/10/22 02:03:54;;;;;;;33.30;22.80;;;;;;;;;;1046334;28;20074;-66
2023/10/22 02:04:25;;;;;;;36.05;22.92;;;;;;;;;;1044368;28;20036;-67
2023/10/22 02:04:56;;;;;;;34.05;23.75;;;;;;;;;;1045865;28;20609;-66
2023/10/22 02:05:26;;;;;;;40.05;24.90;;;;;;;;;;1043275;28;20048;-65
2023/10/22 02:05:57;;;;;;;35.75;22.85;;;;;;;;;;1046917;28;20087;-66
2023/10/22 02:06:27;;;;;;;37.50;22.60;;;;;;;;;;1045245;28;20049;-65
2023/10/22 02:06:58;;;;;;;39.08;23.75;;;;;;;;;;1045827;28;20048;-65
2023/10/22 02:07:29;;;;;;;34.10;22.90;;;;;;;;;;1045000;28;20056;-65
2023/10/22 02:08:00;;;;;;;39.67;25.55;;;;;;;;;;1046784;28;20062;-65
2023/10/22 02:08:30;;;;;;;36.72;24.45;;;;;;;;;;1045298;28;20127;-66
2023/10/22 02:09:01;;;;;;;41.58;25.17;;;;;;;;;;1045676;28;20049;-65
2023/10/22 02:09:32;;;;;;;36.63;24.98;;;;;;;;;;1045674;28;20052;-66
2023/10/22 02:10:02;;;;;;;45.75;24.80;;;;;;;;;;1043402;28;20603;-66
2023/10/22 02:10:33;;;;;;;38.38;24.85;;;;;;;;;;1044800;28;20049;-64
2023/10/22 02:11:04;;;;;;;43.15;25.13;;;;;;;;;;1046205;28;20728;-67
2023/10/22 02:11:34;;;;;;;39.15;25.40;;;;;;;;;;1044858;28;20674;-65
2023/10/22 02:12:07;;;;;;;37.30;24.52;;;;;;;;;;1045308;28;20044;-66
2023/10/22 02:12:37;;;;;;;45.13;27.67;;;;;;;;;;1044678;28;20135;-66
2023/10/22 02:13:08;;;;;;;43.90;26.92;;;;;;;;;;1046296;28;20036;-66
2023/10/22 02:13:39;;;;;;;38.08;26.05;;;;;;;;;;1046508;28;20052;-66
2023/10/22 02:14:09;;;;;;;46.85;26.08;;;;;;;;;;1044282;28;20094;-65
2023/10/22 02:14:40;;;;;;;44.78;26.50;;;;;;;;;;1044979;28;20174;-66
2023/10/22 02:15:10;;;;;;;50.95;27.75;;;;;;;;;;1044837;28;20047;-65
2023/10/22 02:15:41;;;;;;;47.05;27.02;;;;;;;;;;1046227;28;20496;-66
2023/10/22 02:16:11;;;;;;;42.40;27.23;;;;;;;;;;1044291;28;20596;-65
2023/10/22 02:16:42;;;;;;;52.33;26.17;;;;;;;;;;1045315;28;20041;-64
2023/10/22 02:17:13;;;;;;;43.85;27.27;;;;;;;;;;1044329;28;20139;-67
2023/10/22 02:17:43;;;;;;;45.50;27.20;;;;;;;;;;1046569;28;20060;-66
2023/10/22 02:18:14;;;;;;;41.22;26.25;;;;;;;;;;1044728;28;20069;-65
2023/10/22 02:18:45;;;;;;;45.92;27.08;;;;;;;;;;1043831;28;20055;-66
2023/10/22 02:19:15;;;;;;;41.33;26.30;;;;;;;;;;1045369;28;20545;-64
2023/10/22 02:19:46;;;;;;;50.67;27.38;;;;;;;;;;1044187;28;20520;-67
2023/10/22 02:20:16;;;;;;;48.20;26.83;;;;;;;;;;1046018;28;20059;-64
2023/10/22 02:20:58;;;;;;;49.38;27.30;;;;;;;;;;1045356;28;20052;-67
2023/10/22 02:21:29;;;;;;;48.35;26.58;;;;;;;;;;1045673;28;20101;-65
2023/10/22 02:21:59;;;;;;;51.00;27.15;;;;;;;;;;1045965;28;20109;-66
2023/10/22 02:22:30;;;;;;;49.88;26.77;;;;;;;;;;1045319;28;20135;-66
2023/10/22 02:23:01;;;;;;;43.60;26.23;;;;;;;;;;1047040;28;20098;-67
2023/10/22 02:23:31;;;;;;;42.97;26.52;;;;;;;;;;1045164;28;20076;-66
2023/10/22 02:24:02;;;;;;;41.28;27.20;;;;;;;;;;1045748;28;20131;-66
2023/10/22 02:24:33;;;;;;;47.50;26.95;;;;;;;;;;1045636;28;20409;-66
2023/10/22 02:25:05;;;;;;;47.28;29.58;;;;;;;;;;1046924;28;20048;-67
2023/10/22 02:25:35;;;;;;;48.60;26.52;;;;;;;;;;1045024;28;20141;-65
2023/10/22 02:26:07;;;;;;;46.70;28.58;;;;;;;;;;1046948;28;20105;-66
2023/10/22 02:26:37;;;;;;;42.10;25.80;;;;;;;;;;1044562;28;20058;-67
2023/10/22 02:27:08;;;;;;;49.63;27.25;;;;;;;;;;1045037;28;20044;-64
2023/10/22 02:27:38;;;;;;;49.15;27.05;;;;;;;;;;1044648;28;20218;-66
2023/10/22 02:28:09;;;;;;;47.58;27.95;;;;;;;;;;1045235;28;20053;-65
2023/10/22 02:28:40;;;;;;;47.40;27.15;;;;;;;;;;1044641;28;20044;-66
2023/10/22 02:29:12;;;;;;;54.08;28.17;;;;;;;;;;1044661;28;20053;-66
2023/10/22 02:29:43;;;;;;;48.63;27.25;;;;;;;;;;1042826;28;20641;-65
2023/10/22 02:30:13;;;;;;;52.20;28.05;;;;;;;;;;1045002;28;20064;-66
2023/10/22 02:30:47;;;;;;;45.28;26.63;;;;;;;;;;1046145;28;20566;-65
2023/10/22 02:31:17;;;;;;;43.65;26.73;;;;;;;;;;1044965;28;20103;-65
2023/10/22 02:31:48;;;;;;;63.28;30.38;;;;;;;;;;1044051;28;20060;-65
2023/10/22 02:32:18;;;;;;;49.97;27.73;;;;;;;;;;1045455;28;20060;-65
2023/10/22 02:32:49;;;;;;;42.55;27.45;;;;;;;;;;1045669;28;20139;-66
2023/10/22 02:33:19;;;;;;;45.30;27.27;;;;;;;;;;1045504;28;20126;-65
2023/10/22 02:34:00;;;;;;;49.65;27.30;;;;;;;;;;1044669;28;20416;-65
2023/10/22 02:34:31;;;;;;;44.63;26.48;;;;;;;;;;1044343;28;20056;-66
2023/10/22 02:35:01;;;;;;;43.20;24.73;;;;;;;;;;1043974;28;20057;-64
2023/10/22 02:35:32;;;;;;;39.88;24.55;;;;;;;;;;1045179;28;20059;-66
2023/10/22 02:36:04;;;;;;;41.40;25.10;;;;;;;;;;1044470;28;20136;-66
2023/10/22 02:36:35;;;;;;;47.13;26.20;;;;;;;;;;1045531;28;20408;-65
2023/10/22 02:37:05;;;;;;;44.83;26.17;;;;;;;;;;1045326;28;20052;-65
2023/10/22 02:37:36;;;;;;;45.25;25.70;;;;;;;;;;1045997;28;20197;-65
2023/10/22 02:38:08;;;;;;;42.20;25.23;;;;;;;;;;1046005;28;20647;-67
2023/10/22 02:38:39;;;;;;;40.88;25.58;;;;;;;;;;1045633;28;20134;-66
2023/10/22 02:39:11;;;;;;;43.13;24.42;;;;;;;;;;1043997;28;20055;-67
2023/10/22 02:39:42;;;;;;;44.13;25.27;;;;;;;;;;1044038;28;20076;-65
2023/10/22 02:40:12;;;;;;;38.97;24.85;;;;;;;;;;1045868;28;20089;-64
2023/10/22 02:40:44;;;;;;;41.63;25.33;;;;;;;;;;1046980;28;20503;-66
2023/10/22 02:41:14;;;;;;;36.22;23.40;;;;;;;;;;1045398;28;20101;-65
2023/10/22 02:41:45;;;;;;;37.72;24.55;;;;;;;;;;1044517;28;20056;-66
2023/10/22 02:42:16;;;;;;;39.75;24.52;;;;;;;;;;1043160;28;20102;-64
2023/10/22 02:42:47;;;;;;;38.45;24.00;;;;;;;;;;1045090;28;20053;-65
2023/10/22 02:43:18;;;;;;;38.95;22.55;;;;;;;;;;1044923;28;20055;-67
2023/10/22 02:43:48;;;;;;;35.95;23.40;;;;;;;;;;1044653;28;20053;-64
2023/10/22 02:44:19;;;;;;;37.25;23.08;;;;;;;;;;1044038;28;20052;-65
2023/10/22 02:44:50;;;;;;;39.63;24.85;;;;;;;;;;1046594;28;20082;-64
2023/10/22 02:45:20;;;;;;;40.90;23.73;;;;;;;;;;1043818;28;20052;-66
2023/10/22 02:45:52;;;;;;;42.90;23.67;;;;;;;;;;1045691;28;20048;-66
2023/10/22 02:46:23;;;;;;;46.13;23.65;;;;;;;;;;1045998;28;20500;-65
2023/10/22 02:46:54;;;;;;;40.13;24.23;;;;;;;;;;1046730;28;20109;-65
2023/10/22 02:47:25;;;;;;;47.75;25.42;;;;;;;;;;1044841;28;20479;-66
2023/10/22 02:47:58;;;;;;;46.33;25.58;;;;;;;;;;1045045;28;20074;-66
2023/10/22 02:48:28;;;;;;;41.63;23.60;;;;;;;;;;1045025;28;20112;-65
2023/10/22 02:48:58;;;;;;;40.92;24.58;;;;;;;;;;1044792;28;20044;-66
2023/10/22 02:49:30;;;;;;;51.50;25.63;;;;;;;;;;1046136;28;20075;-64
2023/10/22 02:50:00;;;;;;;43.47;24.63;;;;;;;;;;1044261;28;20175;-66
2023/10/22 02:50:31;;;;;;;46.42;22.85;;;;;;;;;;1044542;28;20123;-66
2023/10/22 02:51:03;;;;;;;39.35;24.20;;;;;;;;;;1046638;28;20143;-65
2023/10/22 02:51:33;;;;;;;37.67;23.10;;;;;;;;;;1045157;28;20578;-67
2023/10/22 02:52:05;;;;;;;45.00;23.98;;;;;;;;;;1044593;28;20681;-65
2023/10/22 02:52:35;;;;;;;35.63;23.52;;;;;;;;;;1044927;28;21373;-65
2023/10/22 02:53:06;;;;;;;34.88;22.95;;;;;;;;;;1046424;28;20873;-67
2023/10/22 02:53:38;;;;;;;45.97;24.20;;;;;;;;;;1044884;28;20688;-66
2023/10/22 02:54:08;;;;;;;37.83;23.73;;;;;;;;;;1045786;28;20047;-65
2023/10/22 02:54:39;;;;;;;34.00;22.52;;;;;;;;;;1045110;28;20049;-65
2023/10/22 02:55:09;;;;;;;38.97;23.45;;;;;;;;;;1044553;28;20047;-66
2023/10/22 02:55:40;;;;;;;41.33;23.77;;;;;;;;;;1044504;28;20056;-65
2023/10/22 02:56:10;;;;;;;44.90;23.42;;;;;;;;;;1045457;28;20048;-64
2023/10/22 02:56:42;;;;;;;63.47;24.90;;;;;;;;;;1045879;28;20265;-66
2023/10/22 02:57:12;;;;;;;76.95;24.38;;;;;;;;;;1045519;28;20068;-67
2023/10/22 02:57:43;;;;;;;68.65;23.48;;;;;;;;;;1045317;28;20127;-64
2023/10/22 02:58:14;;;;;;;79.50;25.25;;;;;;;;;;1045801;28;20135;-66
2023/10/22 02:58:44;;;;;;;55.47;22.83;;;;;;;;;;1044607;28;20068;-66
2023/10/22 02:59:16;;;;;;;43.80;22.77;;;;;;;;;;1046143;28;20132;-66
2023/10/22 02:59:47;;;;;;;37.45;21.38;;;;;;;;;;1046266;28;20099;-65
2023/10/22 03:00:19;;;;;;;49.33;22.90;;;;;;;;;;1042612;28;20542;-66